sensor_id;sensor_type;location;lat;lon;timestamp;temperature;humidity
46440;DHT22;32138;50.966;6.968;2022-12-18T00:00:22;-1.60;89.80
46440;DHT22;32138;50.966;6.968;2022-12-18T00:01:31;-1.60;89.30
46440;DHT22;32138;50.966;6.968;2022-12-18T00:02:33;-1.60;89.10
46440;DHT22;32138;50.966;6.968;2022-12-18T00:03:35;-1.40;89.50
46440;DHT22;32138;50.966;6.968;2022-12-18T00:04:36;-1.60;88.70
46440;DHT22;32138;50.966;6.968;2022-12-18T00:05:36;-1.50;89.00
46440;DHT22;32138;50.966;6.968;2022-12-18T00:06:37;-1.50;88.60
46440;DHT22;32138;50.966;6.968;2022-12-18T00:07:38;-1.50;89.20
46440;DHT22;32138;50.966;6.968;2022-12-18T00:08:40;-1.10;89.10
46440;DHT22;32138;50.966;6.968;2022-12-18T00:09:47;-1.00;88.20
46440;DHT22;32138;50.966;6.968;2022-12-18T00:10:48;-1.10;87.40
46440;DHT22;32138;50.966;6.968;2022-12-18T00:11:49;-1.10;87.30
46440;DHT22;32138;50.966;6.968;2022-12-18T00:12:49;-1.10;87.80
46440;DHT22;32138;50.966;6.968;2022-12-18T00:13:51;-1.20;86.90
46440;DHT22;32138;50.966;6.968;2022-12-18T00:14:53;-1.20;87.40
46440;DHT22;32138;50.966;6.968;2022-12-18T00:15:54;-1.30;87.60
46440;DHT22;32138;50.966;6.968;2022-12-18T00:16:55;-1.40;88.10
46440;DHT22;32138;50.966;6.968;2022-12-18T00:17:55;-1.30;88.20
46440;DHT22;32138;50.966;6.968;2022-12-18T00:18:57;-1.40;87.60
46440;DHT22;32138;50.966;6.968;2022-12-18T00:19:57;-1.50;87.30
46440;DHT22;32138;50.966;6.968;2022-12-18T00:21:04;-1.40;88.30
46440;DHT22;32138;50.966;6.968;2022-12-18T00:22:06;-1.40;88.00
46440;DHT22;32138;50.966;6.968;2022-12-18T00:23:07;-1.30;88.40
46440;DHT22;32138;50.966;6.968;2022-12-18T00:24:09;-1.30;88.40
46440;DHT22;32138;50.966;6.968;2022-12-18T00:25:10;-1.00;87.70
46440;DHT22;32138;50.966;6.968;2022-12-18T00:26:14;-1.00;87.10
46440;DHT22;32138;50.966;6.968;2022-12-18T00:27:19;-1.10;86.80
46440;DHT22;32138;50.966;6.968;2022-12-18T00:28:20;-1.30;87.00
46440;DHT22;32138;50.966;6.968;2022-12-18T00:29:21;-1.20;87.30
46440;DHT22;32138;50.966;6.968;2022-12-18T00:30:22;-1.40;87.30
46440;DHT22;32138;50.966;6.968;2022-12-18T00:31:24;-1.30;88.00
46440;DHT22;32138;50.966;6.968;2022-12-18T00:32:26;-1.00;87.80
46440;DHT22;32138;50.966;6.968;2022-12-18T00:33:27;-0.90;87.10
46440;DHT22;32138;50.966;6.968;2022-12-18T00:34:28;-1.20;87.10
46440;DHT22;32138;50.966;6.968;2022-12-18T00:35:31;-1.30;87.20
46440;DHT22;32138;50.966;6.968;2022-12-18T00:36:33;-1.30;87.80
46440;DHT22;32138;50.966;6.968;2022-12-18T00:37:34;-1.30;87.80
46440;DHT22;32138;50.966;6.968;2022-12-18T00:38:36;-1.30;88.10
46440;DHT22;32138;50.966;6.968;2022-12-18T00:39:37;-1.30;87.60
46440;DHT22;32138;50.966;6.968;2022-12-18T00:40:37;-1.30;87.60
46440;DHT22;32138;50.966;6.968;2022-12-18T00:41:38;-1.00;87.50
46440;DHT22;32138;50.966;6.968;2022-12-18T00:42:57;-1.00;87.50
46440;DHT22;32138;50.966;6.968;2022-12-18T00:43:58;-0.70;87.50
46440;DHT22;32138;50.966;6.968;2022-12-18T00:44:59;-0.80;86.60
46440;DHT22;32138;50.966;6.968;2022-12-18T00:46:00;-0.90;86.40
46440;DHT22;32138;50.966;6.968;2022-12-18T00:47:01;-0.80;86.50
46440;DHT22;32138;50.966;6.968;2022-12-18T00:48:01;-1.00;86.30
46440;DHT22;32138;50.966;6.968;2022-12-18T00:49:02;-1.10;86.80
46440;DHT22;32138;50.966;6.968;2022-12-18T00:50:03;-1.10;86.50
46440;DHT22;32138;50.966;6.968;2022-12-18T00:51:05;-0.80;86.30
46440;DHT22;32138;50.966;6.968;2022-12-18T00:52:07;-0.80;86.10
46440;DHT22;32138;50.966;6.968;2022-12-18T00:53:07;-1.10;85.70
46440;DHT22;32138;50.966;6.968;2022-12-18T00:54:08;-1.10;86.50
46440;DHT22;32138;50.966;6.968;2022-12-18T00:55:10;-1.30;86.80
46440;DHT22;32138;50.966;6.968;2022-12-18T00:56:11;-1.10;88.10
46440;DHT22;32138;50.966;6.968;2022-12-18T00:57:12;-1.10;86.70
46440;DHT22;32138;50.966;6.968;2022-12-18T00:58:15;-1.00;87.30
46440;DHT22;32138;50.966;6.968;2022-12-18T00:59:17;-1.00;86.90
46440;DHT22;32138;50.966;6.968;2022-12-18T01:00:18;-1.10;86.70
46440;DHT22;32138;50.966;6.968;2022-12-18T01:01:19;-1.10;86.70
46440;DHT22;32138;50.966;6.968;2022-12-18T01:02:20;-1.10;86.80
46440;DHT22;32138;50.966;6.968;2022-12-18T01:03:21;-1.00;86.70
46440;DHT22;32138;50.966;6.968;2022-12-18T01:04:21;-1.20;86.40
46440;DHT22;32138;50.966;6.968;2022-12-18T01:05:22;-1.00;86.70
46440;DHT22;32138;50.966;6.968;2022-12-18T01:06:23;-1.20;86.20
46440;DHT22;32138;50.966;6.968;2022-12-18T01:07:24;-1.10;86.60
46440;DHT22;32138;50.966;6.968;2022-12-18T01:08:24;-1.00;86.70
46440;DHT22;32138;50.966;6.968;2022-12-18T01:09:25;-0.80;86.30
46440;DHT22;32138;50.966;6.968;2022-12-18T01:10:26;-0.80;85.20
46440;DHT22;32138;50.966;6.968;2022-12-18T01:11:27;-0.80;85.80
46440;DHT22;32138;50.966;6.968;2022-12-18T01:12:28;-0.80;85.60
46440;DHT22;32138;50.966;6.968;2022-12-18T01:13:28;-0.80;85.60
46440;DHT22;32138;50.966;6.968;2022-12-18T01:14:29;-0.90;85.20
46440;DHT22;32138;50.966;6.968;2022-12-18T01:15:30;-1.00;85.30
46440;DHT22;32138;50.966;6.968;2022-12-18T01:16:31;-1.10;85.70
46440;DHT22;32138;50.966;6.968;2022-12-18T01:17:32;-1.00;85.50
46440;DHT22;32138;50.966;6.968;2022-12-18T01:18:33;-0.90;85.80
46440;DHT22;32138;50.966;6.968;2022-12-18T01:19:34;-1.10;85.10
46440;DHT22;32138;50.966;6.968;2022-12-18T01:20:35;-1.00;86.60
46440;DHT22;32138;50.966;6.968;2022-12-18T01:21:36;-1.00;85.10
46440;DHT22;32138;50.966;6.968;2022-12-18T01:22:37;-1.00;85.70
46440;DHT22;32138;50.966;6.968;2022-12-18T01:23:38;-0.90;85.60
46440;DHT22;32138;50.966;6.968;2022-12-18T01:24:38;-0.80;85.40
46440;DHT22;32138;50.966;6.968;2022-12-18T01:25:39;-0.90;85.40
46440;DHT22;32138;50.966;6.968;2022-12-18T01:26:40;-0.90;85.60
46440;DHT22;32138;50.966;6.968;2022-12-18T01:27:41;-0.90;85.70
46440;DHT22;32138;50.966;6.968;2022-12-18T01:28:42;-1.20;85.50
46440;DHT22;32138;50.966;6.968;2022-12-18T01:29:44;-1.10;85.70
46440;DHT22;32138;50.966;6.968;2022-12-18T01:30:44;-1.10;85.00
46440;DHT22;32138;50.966;6.968;2022-12-18T01:31:45;-1.10;85.20
46440;DHT22;32138;50.966;6.968;2022-12-18T01:32:46;-1.10;86.10
46440;DHT22;32138;50.966;6.968;2022-12-18T01:33:47;-0.90;85.70
46440;DHT22;32138;50.966;6.968;2022-12-18T01:34:47;-0.80;85.00
46440;DHT22;32138;50.966;6.968;2022-12-18T01:35:48;-0.70;85.50
46440;DHT22;32138;50.966;6.968;2022-12-18T01:36:49;-0.60;84.90
46440;DHT22;32138;50.966;6.968;2022-12-18T01:37:55;-0.60;84.80
46440;DHT22;32138;50.966;6.968;2022-12-18T01:38:58;-0.60;84.20
46440;DHT22;32138;50.966;6.968;2022-12-18T01:39:59;-0.60;84.30
46440;DHT22;32138;50.966;6.968;2022-12-18T01:41:01;-0.70;83.70
46440;DHT22;32138;50.966;6.968;2022-12-18T01:42:09;-0.90;84.00
46440;DHT22;32138;50.966;6.968;2022-12-18T01:43:13;-0.90;84.80
46440;DHT22;32138;50.966;6.968;2022-12-18T01:45:54;-0.70;85.00
46440;DHT22;32138;50.966;6.968;2022-12-18T01:46:54;-0.80;84.30
46440;DHT22;32138;50.966;6.968;2022-12-18T01:48:05;-0.70;85.00
46440;DHT22;32138;50.966;6.968;2022-12-18T01:49:06;-0.80;84.50
46440;DHT22;32138;50.966;6.968;2022-12-18T01:50:20;-0.90;84.90
46440;DHT22;32138;50.966;6.968;2022-12-18T01:51:23;-0.90;85.00
46440;DHT22;32138;50.966;6.968;2022-12-18T01:52:26;-0.80;85.30
46440;DHT22;32138;50.966;6.968;2022-12-18T01:53:29;-0.90;84.50
46440;DHT22;32138;50.966;6.968;2022-12-18T01:54:29;-1.00;85.30
46440;DHT22;32138;50.966;6.968;2022-12-18T01:55:35;-1.20;85.40
46440;DHT22;32138;50.966;6.968;2022-12-18T01:56:39;-1.30;85.90
46440;DHT22;32138;50.966;6.968;2022-12-18T01:57:40;-1.20;85.90
46440;DHT22;32138;50.966;6.968;2022-12-18T01:58:52;-1.30;86.10
46440;DHT22;32138;50.966;6.968;2022-12-18T01:59:57;-1.30;86.00
46440;DHT22;32138;50.966;6.968;2022-12-18T02:01:01;-1.20;86.50
46440;DHT22;32138;50.966;6.968;2022-12-18T02:02:02;-1.10;85.80
46440;DHT22;32138;50.966;6.968;2022-12-18T02:03:03;-1.20;85.80
46440;DHT22;32138;50.966;6.968;2022-12-18T02:04:33;-1.20;85.80
46440;DHT22;32138;50.966;6.968;2022-12-18T02:05:44;-0.80;85.60
46440;DHT22;32138;50.966;6.968;2022-12-18T02:07:01;-0.60;85.10
46440;DHT22;32138;50.966;6.968;2022-12-18T02:11:22;-1.10;85.40
46440;DHT22;32138;50.966;6.968;2022-12-18T02:12:52;-1.10;85.40
46440;DHT22;32138;50.966;6.968;2022-12-18T02:18:32;-1.60;86.80
46440;DHT22;32138;50.966;6.968;2022-12-18T02:20:10;-1.50;87.30
46440;DHT22;32138;50.966;6.968;2022-12-18T02:27:32;-1.50;87.20
46440;DHT22;32138;50.966;6.968;2022-12-18T02:28:40;-1.60;87.40
46440;DHT22;32138;50.966;6.968;2022-12-18T02:29:53;-1.70;87.40
46440;DHT22;32138;50.966;6.968;2022-12-18T02:30:56;-1.60;87.70
46440;DHT22;32138;50.966;6.968;2022-12-18T02:32:00;-1.60;87.40
46440;DHT22;32138;50.966;6.968;2022-12-18T02:33:02;-1.40;87.20
46440;DHT22;32138;50.966;6.968;2022-12-18T02:34:06;-1.40;86.80
46440;DHT22;32138;50.966;6.968;2022-12-18T02:35:13;-1.30;86.60
46440;DHT22;32138;50.966;6.968;2022-12-18T02:36:18;-1.20;86.90
46440;DHT22;32138;50.966;6.968;2022-12-18T02:37:21;-1.30;86.10
46440;DHT22;32138;50.966;6.968;2022-12-18T02:38:23;-1.40;86.30
46440;DHT22;32138;50.966;6.968;2022-12-18T02:39:26;-1.60;86.50
46440;DHT22;32138;50.966;6.968;2022-12-18T02:40:29;-1.40;86.90
46440;DHT22;32138;50.966;6.968;2022-12-18T02:41:31;-1.40;86.70
46440;DHT22;32138;50.966;6.968;2022-12-18T02:42:32;-1.50;86.70
46440;DHT22;32138;50.966;6.968;2022-12-18T02:43:33;-1.40;87.10
46440;DHT22;32138;50.966;6.968;2022-12-18T02:44:54;-1.40;86.60
46440;DHT22;32138;50.966;6.968;2022-12-18T02:45:57;-1.30;86.90
46440;DHT22;32138;50.966;6.968;2022-12-18T02:46:59;-1.20;86.80
46440;DHT22;32138;50.966;6.968;2022-12-18T02:48:00;-1.10;86.00
46440;DHT22;32138;50.966;6.968;2022-12-18T02:51:47;-1.50;86.80
46440;DHT22;32138;50.966;6.968;2022-12-18T02:53:21;-1.30;87.30
46440;DHT22;32138;50.966;6.968;2022-12-18T02:54:39;-1.30;86.70
46440;DHT22;32138;50.966;6.968;2022-12-18T02:59:02;-1.60;87.80
46440;DHT22;32138;50.966;6.968;2022-12-18T03:00:11;-1.40;86.60
46440;DHT22;32138;50.966;6.968;2022-12-18T03:02:48;-1.20;87.10
46440;DHT22;32138;50.966;6.968;2022-12-18T03:04:24;-1.40;86.90
46440;DHT22;32138;50.966;6.968;2022-12-18T03:05:31;-1.20;86.00
46440;DHT22;32138;50.966;6.968;2022-12-18T03:06:41;-1.10;86.40
46440;DHT22;32138;50.966;6.968;2022-12-18T03:08:14;-1.20;85.70
46440;DHT22;32138;50.966;6.968;2022-12-18T03:09:22;-1.40;85.80
46440;DHT22;32138;50.966;6.968;2022-12-18T03:10:33;-1.30;86.70
46440;DHT22;32138;50.966;6.968;2022-12-18T03:11:52;-1.00;86.50
46440;DHT22;32138;50.966;6.968;2022-12-18T03:13:19;-1.20;85.50
46440;DHT22;32138;50.966;6.968;2022-12-18T03:14:27;-1.30;86.90
46440;DHT22;32138;50.966;6.968;2022-12-18T03:15:44;-1.40;86.40
46440;DHT22;32138;50.966;6.968;2022-12-18T03:16:50;-1.30;86.20
46440;DHT22;32138;50.966;6.968;2022-12-18T03:18:00;-1.50;86.80
46440;DHT22;32138;50.966;6.968;2022-12-18T03:19:17;-1.60;86.50
46440;DHT22;32138;50.966;6.968;2022-12-18T03:20:22;-1.60;87.70
46440;DHT22;32138;50.966;6.968;2022-12-18T03:21:28;-1.40;86.10
46440;DHT22;32138;50.966;6.968;2022-12-18T03:22:37;-1.50;86.60
46440;DHT22;32138;50.966;6.968;2022-12-18T03:23:42;-1.40;86.50
46440;DHT22;32138;50.966;6.968;2022-12-18T03:24:46;-1.40;85.60
46440;DHT22;32138;50.966;6.968;2022-12-18T03:25:51;-1.40;86.40
46440;DHT22;32138;50.966;6.968;2022-12-18T03:26:58;-1.40;86.60
46440;DHT22;32138;50.966;6.968;2022-12-18T03:28:02;-1.20;86.40
46440;DHT22;32138;50.966;6.968;2022-12-18T03:29:08;-1.40;86.00
46440;DHT22;32138;50.966;6.968;2022-12-18T03:30:15;-1.10;86.30
46440;DHT22;32138;50.966;6.968;2022-12-18T03:31:16;-1.00;85.60
46440;DHT22;32138;50.966;6.968;2022-12-18T03:32:27;-1.00;85.50
46440;DHT22;32138;50.966;6.968;2022-12-18T03:33:37;-1.10;85.10
46440;DHT22;32138;50.966;6.968;2022-12-18T03:34:40;-0.90;85.60
46440;DHT22;32138;50.966;6.968;2022-12-18T03:35:43;-0.90;84.60
46440;DHT22;32138;50.966;6.968;2022-12-18T03:36:44;-0.80;84.90
46440;DHT22;32138;50.966;6.968;2022-12-18T03:37:45;-0.70;84.90
46440;DHT22;32138;50.966;6.968;2022-12-18T03:38:46;-0.70;84.50
46440;DHT22;32138;50.966;6.968;2022-12-18T03:39:47;-0.90;84.60
46440;DHT22;32138;50.966;6.968;2022-12-18T03:42:29;-1.20;85.10
46440;DHT22;32138;50.966;6.968;2022-12-18T03:45:10;-1.50;86.40
46440;DHT22;32138;50.966;6.968;2022-12-18T03:47:28;-1.20;87.10
46440;DHT22;32138;50.966;6.968;2022-12-18T03:48:32;-1.20;85.80
46440;DHT22;32138;50.966;6.968;2022-12-18T03:51:23;-1.60;86.80
46440;DHT22;32138;50.966;6.968;2022-12-18T03:52:36;-1.60;87.10
46440;DHT22;32138;50.966;6.968;2022-12-18T03:53:47;-1.50;86.90
46440;DHT22;32138;50.966;6.968;2022-12-18T03:54:50;-1.30;86.90
46440;DHT22;32138;50.966;6.968;2022-12-18T03:55:52;-1.40;86.60
46440;DHT22;32138;50.966;6.968;2022-12-18T03:57:02;-1.20;86.40
46440;DHT22;32138;50.966;6.968;2022-12-18T03:58:07;-1.20;86.70
46440;DHT22;32138;50.966;6.968;2022-12-18T03:59:11;-1.20;86.00
46440;DHT22;32138;50.966;6.968;2022-12-18T04:00:15;-1.00;86.40
46440;DHT22;32138;50.966;6.968;2022-12-18T04:01:18;-0.80;85.70
46440;DHT22;32138;50.966;6.968;2022-12-18T04:02:24;-0.80;85.40
46440;DHT22;32138;50.966;6.968;2022-12-18T04:03:26;-0.70;85.00
46440;DHT22;32138;50.966;6.968;2022-12-18T04:04:30;-0.90;84.70
46440;DHT22;32138;50.966;6.968;2022-12-18T04:05:33;-1.00;85.10
46440;DHT22;32138;50.966;6.968;2022-12-18T04:06:34;-0.90;84.90
46440;DHT22;32138;50.966;6.968;2022-12-18T04:07:36;-1.00;84.90
46440;DHT22;32138;50.966;6.968;2022-12-18T04:08:39;-1.30;85.40
46440;DHT22;32138;50.966;6.968;2022-12-18T04:09:41;-1.40;86.90
46440;DHT22;32138;50.966;6.968;2022-12-18T04:10:42;-1.50;86.80
46440;DHT22;32138;50.966;6.968;2022-12-18T04:11:43;-1.40;87.00
46440;DHT22;32138;50.966;6.968;2022-12-18T04:12:46;-1.40;87.10
46440;DHT22;32138;50.966;6.968;2022-12-18T04:13:47;-1.30;86.80
46440;DHT22;32138;50.966;6.968;2022-12-18T04:14:48;-1.20;86.10
46440;DHT22;32138;50.966;6.968;2022-12-18T04:15:49;-1.20;85.90
46440;DHT22;32138;50.966;6.968;2022-12-18T04:16:49;-1.40;86.00
46440;DHT22;32138;50.966;6.968;2022-12-18T04:17:50;-1.60;86.60
46440;DHT22;32138;50.966;6.968;2022-12-18T04:18:51;-1.50;87.20
46440;DHT22;32138;50.966;6.968;2022-12-18T04:19:52;-1.50;86.80
46440;DHT22;32138;50.966;6.968;2022-12-18T04:20:53;-1.70;88.50
46440;DHT22;32138;50.966;6.968;2022-12-18T04:21:54;-1.60;87.80
46440;DHT22;32138;50.966;6.968;2022-12-18T04:22:54;-1.60;87.10
46440;DHT22;32138;50.966;6.968;2022-12-18T04:23:55;-1.60;87.40
46440;DHT22;32138;50.966;6.968;2022-12-18T04:24:56;-1.60;87.30
46440;DHT22;32138;50.966;6.968;2022-12-18T04:25:57;-1.50;87.30
46440;DHT22;32138;50.966;6.968;2022-12-18T04:26:57;-1.20;86.70
46440;DHT22;32138;50.966;6.968;2022-12-18T04:27:58;-1.40;86.00
46440;DHT22;32138;50.966;6.968;2022-12-18T04:28:59;-1.40;86.80
46440;DHT22;32138;50.966;6.968;2022-12-18T04:29:59;-1.30;85.70
46440;DHT22;32138;50.966;6.968;2022-12-18T04:31:00;-1.40;85.90
46440;DHT22;32138;50.966;6.968;2022-12-18T04:32:01;-1.20;86.20
46440;DHT22;32138;50.966;6.968;2022-12-18T04:33:02;-1.20;85.90
46440;DHT22;32138;50.966;6.968;2022-12-18T04:34:03;-1.10;85.70
46440;DHT22;32138;50.966;6.968;2022-12-18T04:35:04;-1.10;85.90
46440;DHT22;32138;50.966;6.968;2022-12-18T04:36:07;-1.40;85.90
46440;DHT22;32138;50.966;6.968;2022-12-18T04:37:08;-1.60;86.20
46440;DHT22;32138;50.966;6.968;2022-12-18T04:38:09;-1.30;86.10
46440;DHT22;32138;50.966;6.968;2022-12-18T04:39:10;-1.30;86.30
46440;DHT22;32138;50.966;6.968;2022-12-18T04:40:11;-1.30;85.50
46440;DHT22;32138;50.966;6.968;2022-12-18T04:41:12;-1.40;86.20
46440;DHT22;32138;50.966;6.968;2022-12-18T04:42:13;-1.40;86.10
46440;DHT22;32138;50.966;6.968;2022-12-18T04:43:14;-1.40;85.90
46440;DHT22;32138;50.966;6.968;2022-12-18T04:44:14;-1.30;86.20
46440;DHT22;32138;50.966;6.968;2022-12-18T04:45:15;-1.30;85.80
46440;DHT22;32138;50.966;6.968;2022-12-18T04:46:16;-1.60;85.90
46440;DHT22;32138;50.966;6.968;2022-12-18T04:47:17;-1.60;86.80
46440;DHT22;32138;50.966;6.968;2022-12-18T04:48:17;-1.70;86.40
46440;DHT22;32138;50.966;6.968;2022-12-18T04:49:18;-1.70;86.90
46440;DHT22;32138;50.966;6.968;2022-12-18T04:50:19;-1.70;86.70
46440;DHT22;32138;50.966;6.968;2022-12-18T04:51:20;-1.80;86.90
46440;DHT22;32138;50.966;6.968;2022-12-18T04:52:21;-1.80;87.30
46440;DHT22;32138;50.966;6.968;2022-12-18T04:53:22;-1.60;86.80
46440;DHT22;32138;50.966;6.968;2022-12-18T04:54:22;-1.70;87.30
46440;DHT22;32138;50.966;6.968;2022-12-18T04:55:23;-1.60;87.60
46440;DHT22;32138;50.966;6.968;2022-12-18T04:56:25;-1.60;86.50
46440;DHT22;32138;50.966;6.968;2022-12-18T04:57:26;-1.70;87.00
46440;DHT22;32138;50.966;6.968;2022-12-18T04:58:26;-1.60;86.80
46440;DHT22;32138;50.966;6.968;2022-12-18T04:59:27;-1.50;86.50
46440;DHT22;32138;50.966;6.968;2022-12-18T05:00:28;-1.40;86.10
46440;DHT22;32138;50.966;6.968;2022-12-18T05:01:29;-1.60;86.70
46440;DHT22;32138;50.966;6.968;2022-12-18T05:02:29;-1.70;86.50
46440;DHT22;32138;50.966;6.968;2022-12-18T05:03:30;-1.80;87.10
46440;DHT22;32138;50.966;6.968;2022-12-18T05:04:31;-1.80;87.50
46440;DHT22;32138;50.966;6.968;2022-12-18T05:05:34;-1.60;87.10
46440;DHT22;32138;50.966;6.968;2022-12-18T05:06:35;-1.80;87.40
46440;DHT22;32138;50.966;6.968;2022-12-18T05:07:35;-1.90;87.20
46440;DHT22;32138;50.966;6.968;2022-12-18T05:08:36;-1.80;87.60
46440;DHT22;32138;50.966;6.968;2022-12-18T05:09:37;-1.90;88.00
46440;DHT22;32138;50.966;6.968;2022-12-18T05:10:38;-1.80;87.50
46440;DHT22;32138;50.966;6.968;2022-12-18T05:11:39;-1.80;87.20
46440;DHT22;32138;50.966;6.968;2022-12-18T05:12:39;-1.90;87.80
46440;DHT22;32138;50.966;6.968;2022-12-18T05:13:58;-1.90;87.40
46440;DHT22;32138;50.966;6.968;2022-12-18T05:14:59;-1.90;87.30
46440;DHT22;32138;50.966;6.968;2022-12-18T05:16:00;-2.00;87.30
46440;DHT22;32138;50.966;6.968;2022-12-18T05:17:01;-2.10;88.00
46440;DHT22;32138;50.966;6.968;2022-12-18T05:18:02;-2.10;87.90
46440;DHT22;32138;50.966;6.968;2022-12-18T05:19:04;-2.20;88.60
46440;DHT22;32138;50.966;6.968;2022-12-18T05:20:05;-2.10;87.30
46440;DHT22;32138;50.966;6.968;2022-12-18T05:21:05;-2.10;88.10
46440;DHT22;32138;50.966;6.968;2022-12-18T05:22:06;-2.10;88.10
46440;DHT22;32138;50.966;6.968;2022-12-18T05:23:07;-2.10;88.10
46440;DHT22;32138;50.966;6.968;2022-12-18T05:24:08;-2.00;88.00
46440;DHT22;32138;50.966;6.968;2022-12-18T05:25:09;-1.80;87.70
46440;DHT22;32138;50.966;6.968;2022-12-18T05:26:15;-2.00;87.30
46440;DHT22;32138;50.966;6.968;2022-12-18T05:27:17;-1.90;87.60
46440;DHT22;32138;50.966;6.968;2022-12-18T05:28:20;-1.80;87.20
46440;DHT22;32138;50.966;6.968;2022-12-18T05:29:21;-1.80;86.90
46440;DHT22;32138;50.966;6.968;2022-12-18T05:30:22;-1.80;86.70
46440;DHT22;32138;50.966;6.968;2022-12-18T05:31:23;-1.80;87.00
46440;DHT22;32138;50.966;6.968;2022-12-18T05:32:24;-1.70;86.80
46440;DHT22;32138;50.966;6.968;2022-12-18T05:33:27;-1.80;86.50
46440;DHT22;32138;50.966;6.968;2022-12-18T05:34:29;-1.90;86.80
46440;DHT22;32138;50.966;6.968;2022-12-18T05:35:30;-2.00;87.50
46440;DHT22;32138;50.966;6.968;2022-12-18T05:36:31;-1.90;87.70
46440;DHT22;32138;50.966;6.968;2022-12-18T05:37:32;-1.70;87.00
46440;DHT22;32138;50.966;6.968;2022-12-18T05:38:34;-1.80;86.50
46440;DHT22;32138;50.966;6.968;2022-12-18T05:39:37;-1.80;87.30
46440;DHT22;32138;50.966;6.968;2022-12-18T05:40:37;-1.70;86.70
46440;DHT22;32138;50.966;6.968;2022-12-18T05:41:42;-1.80;86.70
46440;DHT22;32138;50.966;6.968;2022-12-18T05:42:42;-1.80;87.00
46440;DHT22;32138;50.966;6.968;2022-12-18T05:43:43;-1.90;87.80
46440;DHT22;32138;50.966;6.968;2022-12-18T05:44:44;-1.80;87.20
46440;DHT22;32138;50.966;6.968;2022-12-18T05:45:45;-1.60;87.30
46440;DHT22;32138;50.966;6.968;2022-12-18T05:46:45;-1.70;86.10
46440;DHT22;32138;50.966;6.968;2022-12-18T05:47:46;-1.70;86.90
46440;DHT22;32138;50.966;6.968;2022-12-18T05:48:47;-1.80;87.00
46440;DHT22;32138;50.966;6.968;2022-12-18T05:49:48;-1.90;87.00
46440;DHT22;32138;50.966;6.968;2022-12-18T05:50:50;-1.80;87.30
46440;DHT22;32138;50.966;6.968;2022-12-18T05:51:51;-1.70;86.30
46440;DHT22;32138;50.966;6.968;2022-12-18T05:52:52;-1.70;86.80
46440;DHT22;32138;50.966;6.968;2022-12-18T05:53:52;-1.70;86.80
46440;DHT22;32138;50.966;6.968;2022-12-18T05:54:53;-1.50;86.60
46440;DHT22;32138;50.966;6.968;2022-12-18T05:55:54;-1.60;86.60
46440;DHT22;32138;50.966;6.968;2022-12-18T05:56:55;-1.60;86.10
46440;DHT22;32138;50.966;6.968;2022-12-18T05:57:55;-1.60;87.30
46440;DHT22;32138;50.966;6.968;2022-12-18T05:58:56;-1.50;86.10
46440;DHT22;32138;50.966;6.968;2022-12-18T05:59:57;-1.50;86.10
46440;DHT22;32138;50.966;6.968;2022-12-18T06:01:12;-1.70;85.90
46440;DHT22;32138;50.966;6.968;2022-12-18T06:02:17;-1.70;86.50
46440;DHT22;32138;50.966;6.968;2022-12-18T06:03:18;-1.80;86.70
46440;DHT22;32138;50.966;6.968;2022-12-18T06:04:19;-2.20;87.00
46440;DHT22;32138;50.966;6.968;2022-12-18T06:05:20;-2.10;88.40
46440;DHT22;32138;50.966;6.968;2022-12-18T06:06:23;-2.10;88.70
46440;DHT22;32138;50.966;6.968;2022-12-18T06:07:25;-2.20;88.60
46440;DHT22;32138;50.966;6.968;2022-12-18T06:08:26;-2.30;89.00
46440;DHT22;32138;50.966;6.968;2022-12-18T06:09:27;-2.20;89.30
46440;DHT22;32138;50.966;6.968;2022-12-18T06:10:29;-2.10;89.20
46440;DHT22;32138;50.966;6.968;2022-12-18T06:11:30;-2.20;88.70
46440;DHT22;32138;50.966;6.968;2022-12-18T06:12:31;-2.00;88.30
46440;DHT22;32138;50.966;6.968;2022-12-18T06:13:33;-2.00;88.20
46440;DHT22;32138;50.966;6.968;2022-12-18T06:14:34;-2.20;88.80
46440;DHT22;32138;50.966;6.968;2022-12-18T06:15:38;-2.00;89.40
46440;DHT22;32138;50.966;6.968;2022-12-18T06:16:39;-1.90;88.10
46440;DHT22;32138;50.966;6.968;2022-12-18T06:17:40;-1.90;87.40
46440;DHT22;32138;50.966;6.968;2022-12-18T06:18:40;-1.90;87.60
46440;DHT22;32138;50.966;6.968;2022-12-18T06:19:41;-2.00;87.70
46440;DHT22;32138;50.966;6.968;2022-12-18T06:20:42;-2.00;88.40
46440;DHT22;32138;50.966;6.968;2022-12-18T06:21:43;-2.00;88.10
46440;DHT22;32138;50.966;6.968;2022-12-18T06:22:44;-1.90;88.20
46440;DHT22;32138;50.966;6.968;2022-12-18T06:23:44;-1.90;88.20
46440;DHT22;32138;50.966;6.968;2022-12-18T06:24:45;-1.70;87.90
46440;DHT22;32138;50.966;6.968;2022-12-18T06:25:46;-1.80;87.40
46440;DHT22;32138;50.966;6.968;2022-12-18T06:26:46;-1.80;87.80
46440;DHT22;32138;50.966;6.968;2022-12-18T06:27:48;-1.50;87.70
46440;DHT22;32138;50.966;6.968;2022-12-18T06:28:48;-1.50;86.90
46440;DHT22;32138;50.966;6.968;2022-12-18T06:29:49;-1.30;86.80
46440;DHT22;32138;50.966;6.968;2022-12-18T06:30:50;-1.60;86.60
46440;DHT22;32138;50.966;6.968;2022-12-18T06:31:51;-1.60;87.40
46440;DHT22;32138;50.966;6.968;2022-12-18T06:32:51;-1.70;87.10
46440;DHT22;32138;50.966;6.968;2022-12-18T06:33:52;-1.60;87.20
46440;DHT22;32138;50.966;6.968;2022-12-18T06:34:53;-1.70;86.80
46440;DHT22;32138;50.966;6.968;2022-12-18T06:36:07;-1.50;87.40
46440;DHT22;32138;50.966;6.968;2022-12-18T06:37:10;-1.70;87.40
46440;DHT22;32138;50.966;6.968;2022-12-18T06:38:10;-1.60;88.10
46440;DHT22;32138;50.966;6.968;2022-12-18T06:39:11;-1.60;87.30
46440;DHT22;32138;50.966;6.968;2022-12-18T06:40:12;-1.40;87.40
46440;DHT22;32138;50.966;6.968;2022-12-18T06:41:18;-1.20;86.20
46440;DHT22;32138;50.966;6.968;2022-12-18T06:42:21;-1.30;85.80
46440;DHT22;32138;50.966;6.968;2022-12-18T06:43:28;-1.50;85.50
46440;DHT22;32138;50.966;6.968;2022-12-18T06:44:29;-1.60;86.50
46440;DHT22;32138;50.966;6.968;2022-12-18T06:45:30;-1.50;86.20
46440;DHT22;32138;50.966;6.968;2022-12-18T06:46:31;-1.50;86.00
46440;DHT22;32138;50.966;6.968;2022-12-18T06:47:32;-1.70;86.60
46440;DHT22;32138;50.966;6.968;2022-12-18T06:48:33;-1.80;87.60
46440;DHT22;32138;50.966;6.968;2022-12-18T06:49:34;-1.70;87.90
46440;DHT22;32138;50.966;6.968;2022-12-18T06:50:34;-1.70;87.50
46440;DHT22;32138;50.966;6.968;2022-12-18T06:51:35;-1.60;87.20
46440;DHT22;32138;50.966;6.968;2022-12-18T06:52:36;-1.50;86.40
46440;DHT22;32138;50.966;6.968;2022-12-18T06:53:37;-1.50;86.70
46440;DHT22;32138;50.966;6.968;2022-12-18T06:54:37;-1.30;86.70
46440;DHT22;32138;50.966;6.968;2022-12-18T06:55:38;-1.20;85.80
46440;DHT22;32138;50.966;6.968;2022-12-18T06:56:39;-1.30;85.60
46440;DHT22;32138;50.966;6.968;2022-12-18T06:57:40;-1.20;86.00
46440;DHT22;32138;50.966;6.968;2022-12-18T06:58:41;-1.20;86.10
46440;DHT22;32138;50.966;6.968;2022-12-18T06:59:41;-1.40;85.60
46440;DHT22;32138;50.966;6.968;2022-12-18T07:00:42;-1.40;85.70
46440;DHT22;32138;50.966;6.968;2022-12-18T07:01:43;-1.50;86.10
46440;DHT22;32138;50.966;6.968;2022-12-18T07:02:44;-1.50;86.50
46440;DHT22;32138;50.966;6.968;2022-12-18T07:03:45;-1.40;86.80
46440;DHT22;32138;50.966;6.968;2022-12-18T07:04:45;-1.50;86.20
46440;DHT22;32138;50.966;6.968;2022-12-18T07:05:46;-1.30;86.30
46440;DHT22;32138;50.966;6.968;2022-12-18T07:06:47;-1.50;86.00
46440;DHT22;32138;50.966;6.968;2022-12-18T07:07:48;-1.40;86.20